Time;durP1;ratioP1;P1;durP2;ratioP2;P2;SDS_P1;SDS_P2;PMS_P1;PMS_P2;Temp;Humidity;BMP_temperature;BMP_pressure;BME280_temperature;BME280_humidity;BME280_pressure;Samples;Min_cycle;Max_cycle;Signal;HPM_P1;HPM_P2
2022/10/17 00:01:58;;;;;;;12.20;3.70;;;;;;;6.72;64.46;101044.34;24493;1335;3027458;-67
2022/10/17 00:04:28;;;;;;;7.30;3.70;;;;;;;6.76;63.88;101044.59;24405;1337;3053003;-65
2022/10/17 00:06:57;;;;;;;11.10;3.60;;;;;;;6.83;63.52;101044.30;24483;1336;3027542;-71
2022/10/17 00:09:26;;;;;;;8.70;3.90;;;;;;;6.86;63.80;101041.26;24508;1340;3054414;-66
2022/10/17 00:11:55;;;;;;;7.30;3.40;;;;;;;6.91;63.46;101044.85;24462;1323;3027983;-66
2022/10/17 00:14:24;;;;;;;8.00;3.50;;;;;;;6.95;63.35;101041.27;24513;1336;3051147;-68
2022/10/17 00:16:58;;;;;;;9.10;4.10;;;;;;;6.96;63.52;101043.16;24493;1337;3050612;-63
2022/10/17 00:19:27;;;;;;;9.60;4.10;;;;;;;6.91;64.07;101038.21;24488;1327;3026070;-71
2022/10/17 00:21:58;;;;;;;8.00;3.90;;;;;;;6.86;64.27;101040.57;24464;1334;3052051;-66
2022/10/17 00:24:30;;;;;;;5.70;3.10;;;;;;;6.87;64.20;101044.72;24406;1340;3027755;-67
2022/10/17 00:27:00;;;;;;;4.40;2.80;;;;;;;6.87;64.57;101047.19;24485;1343;3025481;-70
2022/10/17 00:29:34;;;;;;;6.50;2.70;;;;;;;6.85;64.50;101048.96;24395;1343;3027758;-70
2022/10/17 00:32:04;;;;;;;5.40;2.70;;;;;;;6.85;64.87;101050.35;24548;1343;3028225;-65
2022/10/17 00:34:33;;;;;;;5.90;2.70;;;;;;;6.84;64.87;101051.07;24409;1333;3030311;-72
2022/10/17 00:37:05;;;;;;;6.50;2.70;;;;;;;6.87;64.49;101055.35;24421;1342;3026198;-66
2022/10/17 00:39:35;;;;;;;6.20;2.90;;;;;;;6.85;64.93;101055.23;24537;1336;3026917;-68
2022/10/17 00:42:04;;;;;;;5.00;2.40;;;;;;;6.86;64.73;101053.80;24458;1328;3028341;-68
2022/10/17 00:44:33;;;;;;;5.20;2.80;;;;;;;6.89;64.57;101057.59;24486;1319;3026633;-64
2022/10/17 00:47:08;;;;;;;6.10;3.00;;;;;;;6.88;64.89;101058.83;24552;1327;3056487;-68
2022/10/17 00:49:38;;;;;;;5.50;2.50;;;;;;;6.88;64.85;101057.08;24540;1337;3052465;-67
2022/10/17 00:52:09;;;;;;;9.30;2.90;;;;;;;6.90;64.61;101062.96;24508;1336;3025811;-70
2022/10/17 00:54:42;;;;;;;4.70;2.40;;;;;;;6.91;64.27;101062.78;24449;1327;3057961;-64
2022/10/17 00:57:12;;;;;;;7.70;2.60;;;;;;;6.89;64.71;101065.77;24466;1334;3052737;-65
2022/10/17 00:59:40;;;;;;;8.00;3.30;;;;;;;6.86;64.95;101066.35;24433;1326;3028567;-69
2022/10/17 01:02:14;;;;;;;6.20;2.80;;;;;;;6.80;65.25;101069.78;24459;1335;3056007;-69
2022/10/17 01:04:47;;;;;;;5.30;2.50;;;;;;;6.76;65.35;101072.30;24489;1336;3051377;-66
2022/10/17 01:07:16;;;;;;;6.70;2.70;;;;;;;6.74;65.31;101074.77;24478;1340;3025955;-68
2022/10/17 01:09:49;;;;;;;5.60;2.70;;;;;;;6.70;65.18;101071.89;24424;1336;3026419;-69
2022/10/17 01:12:20;;;;;;;7.10;3.30;;;;;;;6.69;65.10;101071.72;24412;1337;3029525;-68
2022/10/17 01:15:04;;;;;;;5.70;2.80;;;;;;;6.64;65.06;101071.65;24450;1337;3026598;-66
2022/10/17 01:17:54;;;;;;;8.30;2.60;;;;;;;6.61;65.20;101070.15;24403;1327;3069402;-68
2022/10/17 01:20:28;;;;;;;8.30;3.40;;;;;;;6.52;65.93;101076.58;24417;1337;3051940;-64
2022/10/17 01:23:09;;;;;;;6.60;2.90;;;;;;;6.42;66.12;101079.19;24434;1337;3057449;-65
2022/10/17 01:26:11;;;;;;;7.00;3.20;;;;;;;6.42;66.17;101075.87;24419;1328;3053027;-70
2022/10/17 01:28:53;;;;;;;5.40;3.10;;;;;;;6.35;66.69;101075.29;24491;1336;3054801;-63
2022/10/17 01:31:25;;;;;;;8.30;3.10;;;;;;;6.31;66.95;101078.85;24408;1336;3052027;-67
2022/10/17 01:33:59;;;;;;;6.80;3.20;;;;;;;6.28;66.85;101074.02;24431;1335;3026688;-65
2022/10/17 01:36:40;;;;;;;7.40;3.00;;;;;;;6.24;67.29;101074.09;24504;1340;3049233;-67
2022/10/17 01:39:21;;;;;;;8.00;3.40;;;;;;;6.22;67.40;101075.52;24403;1336;3070092;-65
2022/10/17 01:42:21;;;;;;;5.80;3.00;;;;;;;6.21;67.47;101074.48;24445;1336;3051439;-66
2022/10/17 01:44:56;;;;;;;7.50;3.30;;;;;;;6.13;68.06;101069.94;24426;1336;3057313;-69
2022/10/17 01:47:28;;;;;;;7.60;3.50;;;;;;;6.09;68.61;101072.45;24451;1326;3053211;-69
2022/10/17 01:50:02;;;;;;;8.10;3.60;;;;;;;6.02;68.82;101071.85;24441;1329;3026463;-67
2022/10/17 01:52:38;;;;;;;6.50;3.10;;;;;;;5.98;69.37;101071.73;24375;1337;3052050;-66
2022/10/17 01:55:10;;;;;;;9.00;3.30;;;;;;;5.99;69.18;101069.29;24435;1340;3052443;-70
2022/10/17 01:57:49;;;;;;;9.80;3.40;;;;;;;5.97;69.53;101071.74;24427;1337;3026496;-67
2022/10/17 02:00:20;;;;;;;10.90;4.00;;;;;;;5.98;69.02;101072.59;24452;1337;3070158;-68
2022/10/17 02:02:56;;;;;;;7.20;3.30;;;;;;;5.98;69.12;101073.63;24406;1340;3048087;-69
2022/10/17 02:05:31;;;;;;;7.80;3.40;;;;;;;6.02;68.62;101068.55;24392;1336;3028955;-66
2022/10/17 02:08:00;;;;;;;7.10;3.40;;;;;;;6.04;68.04;101065.20;24459;1335;3052371;-63
2022/10/17 02:10:42;;;;;;;8.60;3.20;;;;;;;5.94;68.70;101062.56;24471;1337;3027210;-68
2022/10/17 02:13:37;;;;;;;8.30;3.60;;;;;;;5.94;68.53;101066.20;24481;1327;3053559;-69
2022/10/17 02:16:25;;;;;;;7.40;3.00;;;;;;;5.89;68.60;101065.41;24465;1336;3053686;-66
2022/10/17 02:19:23;;;;;;;6.10;3.10;;;;;;;5.86;68.86;101069.11;24442;1327;3049280;-68
2022/10/17 02:22:13;;;;;;;8.60;3.20;;;;;;;5.87;68.50;101067.52;24444;1336;3071448;-68
2022/10/17 02:24:48;;;;;;;5.60;3.40;;;;;;;5.87;68.40;101065.45;24485;1337;3051466;-66
2022/10/17 02:27:40;;;;;;;6.00;2.90;;;;;;;5.81;68.88;101064.67;24421;1337;3058192;-69
2022/10/17 02:30:15;;;;;;;5.20;2.70;;;;;;;5.87;68.26;101069.63;24396;1327;3052460;-69
2022/10/17 02:32:57;;;;;;;6.00;2.80;;;;;;;5.90;68.05;101072.19;24445;1337;3054074;-67
2022/10/17 02:35:29;;;;;;;5.10;2.80;;;;;;;5.91;67.86;101069.38;24481;1336;3052432;-67
2022/10/17 02:37:58;;;;;;;6.40;3.10;;;;;;;5.91;67.86;101070.27;24441;1337;3028015;-61
2022/10/17 02:40:30;;;;;;;7.80;2.60;;;;;;;5.93;67.75;101071.61;24473;1329;3026338;-63
2022/10/17 02:43:00;;;;;;;7.70;3.30;;;;;;;5.94;67.56;101071.41;24421;1336;3028781;-67
2022/10/17 02:45:34;;;;;;;7.20;2.80;;;;;;;5.96;67.49;101071.57;24468;1320;3026635;-66
2022/10/17 02:48:09;;;;;;;5.70;2.90;;;;;;;5.92;67.84;101078.40;24356;1323;3057677;-68
2022/10/17 02:50:48;;;;;;;5.90;3.30;;;;;;;5.84;68.20;101078.02;24422;1327;3026428;-67
2022/10/17 02:53:23;;;;;;;7.00;2.90;;;;;;;5.83;68.13;101076.45;24449;1337;3053052;-68
2022/10/17 02:55:55;;;;;;;4.90;2.90;;;;;;;5.83;68.11;101080.29;24464;1336;3053164;-68
2022/10/17 02:58:27;;;;;;;5.10;2.80;;;;;;;5.81;68.24;101082.58;24513;1330;3026658;-69
2022/10/17 03:00:57;;;;;;;5.70;3.00;;;;;;;5.82;67.84;101081.00;24470;1336;3027275;-73
2022/10/17 03:03:28;;;;;;;8.60;3.10;;;;;;;5.82;67.95;101085.86;24454;1336;3026896;-69
2022/10/17 03:06:03;;;;;;;7.40;3.20;;;;;;;5.83;67.94;101085.17;24468;1329;3049774;-68
2022/10/17 03:08:35;;;;;;;6.90;3.40;;;;;;;5.78;68.02;101083.85;24425;1328;3027603;-67
2022/10/17 03:11:05;;;;;;;6.30;3.30;;;;;;;5.73;68.21;101078.70;24427;1337;3026264;-68
2022/10/17 03:13:35;;;;;;;10.60;3.70;;;;;;;5.70;68.30;101082.58;24465;1337;3027441;-67
2022/10/17 03:16:05;;;;;;;5.50;2.80;;;;;;;5.68;68.46;101088.16;24435;1329;3026422;-71
2022/10/17 03:18:35;;;;;;;7.70;3.60;;;;;;;5.72;68.12;101087.06;24469;1333;3052681;-71
2022/10/17 03:21:05;;;;;;;10.60;3.00;;;;;;;5.77;67.80;101088.90;24499;1327;3026469;-71
2022/10/17 03:23:35;;;;;;;6.40;3.20;;;;;;;5.79;67.89;101092.34;24466;1330;3027122;-71
2022/10/17 03:26:05;;;;;;;6.30;3.20;;;;;;;5.78;67.89;101092.89;24496;1332;3026003;-69
2022/10/17 03:28:36;;;;;;;7.60;3.70;;;;;;;5.76;68.13;101090.64;24511;1337;3025989;-68
2022/10/17 03:31:09;;;;;;;7.20;3.50;;;;;;;5.67;68.74;101089.56;24488;1337;3028375;-71
2022/10/17 03:33:38;;;;;;;7.90;3.40;;;;;;;5.68;68.52;101091.63;24501;1340;3026515;-71
2022/10/17 03:36:12;;;;;;;7.30;3.20;;;;;;;5.72;68.33;101087.94;24555;1337;3028521;-71
2022/10/17 03:38:42;;;;;;;6.80;3.40;;;;;;;5.74;68.36;101087.38;24414;1334;3028199;-72
2022/10/17 03:41:11;;;;;;;7.90;3.70;;;;;;;5.77;68.09;101089.61;24443;1337;3027435;-69
2022/10/17 03:43:41;;;;;;;5.80;3.30;;;;;;;5.78;67.87;101093.06;24461;1328;3026881;-68
2022/10/17 03:46:10;;;;;;;7.40;3.30;;;;;;;5.77;68.09;101092.20;24509;1334;3027911;-71
2022/10/17 03:48:40;;;;;;;6.80;3.30;;;;;;;5.75;67.97;101091.71;24516;1340;3027077;-66
2022/10/17 03:51:10;;;;;;;8.60;3.40;;;;;;;5.76;67.81;101091.86;24446;1335;3026417;-68
2022/10/17 03:53:46;;;;;;;7.30;3.70;;;;;;;5.77;67.77;101092.90;24472;1342;3051128;-68
2022/10/17 03:56:16;;;;;;;6.10;3.60;;;;;;;5.75;67.75;101096.59;24428;1325;3025769;-69
2022/10/17 03:58:46;;;;;;;7.20;4.00;;;;;;;5.67;68.22;101096.69;24451;1336;3069418;-67
2022/10/17 04:01:16;;;;;;;6.10;3.60;;;;;;;5.63;68.47;101092.05;24409;1343;3028988;-65
2022/10/17 04:03:53;;;;;;;;;;;;;;;5.62;68.43;101095.38;24416;1339;3057866;-64
2022/10/17 04:06:22;;;;;;;9.10;3.50;;;;;;;5.63;68.36;101102.14;24496;1343;3026045;-72
2022/10/17 04:08:51;;;;;;;7.00;3.40;;;;;;;5.61;68.54;101108.44;24459;1328;3029446;-71
2022/10/17 04:11:36;;;;;;;6.60;3.40;;;;;;;5.63;68.26;101112.92;24487;1334;3056399;-65
2022/10/17 04:14:05;;;;;;;8.40;3.90;;;;;;;5.59;68.56;101117.66;24414;1337;3026922;-67
2022/10/17 04:16:36;;;;;;;7.50;3.40;;;;;;;5.57;68.70;101123.95;24461;1340;3028191;-71
2022/10/17 04:19:11;;;;;;;15.10;3.60;;;;;;;5.58;68.41;101130.02;24414;1343;3053174;-68
2022/10/17 04:21:44;;;;;;;8.50;3.90;;;;;;;5.51;68.86;101131.69;24470;1342;3051536;-67
2022/10/17 04:24:13;;;;;;;8.90;4.10;;;;;;;5.50;68.47;101134.29;24415;1344;3028458;-66
2022/10/17 04:27:03;;;;;;;10.20;3.80;;;;;;;5.42;68.80;101137.52;24502;1337;3069958;-69
2022/10/17 04:29:34;;;;;;;9.30;4.50;;;;;;;5.40;68.79;101139.81;24490;1340;3026449;-71
2022/10/17 04:32:08;;;;;;;9.60;4.20;;;;;;;5.36;69.08;101147.34;24489;1333;3056735;-67
2022/10/17 04:34:42;;;;;;;9.90;4.40;;;;;;;5.27;69.23;101149.88;24506;1332;3052234;-66
2022/10/17 04:37:12;;;;;;;9.00;4.60;;;;;;;5.25;69.41;101145.90;24489;1340;3028874;-66
2022/10/17 04:39:41;;;;;;;8.60;4.20;;;;;;;5.23;69.30;101147.14;24400;1336;3029796;-69
2022/10/17 04:42:11;;;;;;;7.60;4.60;;;;;;;5.20;69.67;101144.75;24434;1339;3051544;-66
2022/10/17 04:44:41;;;;;;;12.00;5.30;;;;;;;5.21;69.66;101145.42;24450;1343;3028180;-68
2022/10/17 04:47:10;;;;;;;10.40;4.60;;;;;;;5.21;69.70;101150.11;24476;1335;3028045;-68
2022/10/17 04:49:41;;;;;;;7.80;4.10;;;;;;;5.22;69.55;101153.59;24523;1339;3028522;-69
2022/10/17 04:52:12;;;;;;;11.00;4.30;;;;;;;5.26;69.43;101152.33;24531;1332;3025820;-68
2022/10/17 04:55:07;;;;;;;7.50;4.20;;;;;;;5.32;69.31;101156.77;24423;1336;3069767;-71
2022/10/17 04:57:37;;;;;;;9.70;4.70;;;;;;;5.36;69.18;101155.33;24435;1333;3027160;-67
2022/10/17 05:00:17;;;;;;;10.10;4.60;;;;;;;5.39;69.30;101160.69;24483;1340;3057194;-66
2022/10/17 05:03:02;;;;;;;8.10;4.60;;;;;;;5.41;69.10;101169.00;24447;1332;3053860;-72
2022/10/17 05:05:32;;;;;;;9.80;5.00;;;;;;;5.47;68.78;101172.74;24507;1344;3026145;-69
2022/10/17 05:08:04;;;;;;;10.10;4.40;;;;;;;5.53;68.66;101175.27;24498;1339;3027263;-71
2022/10/17 05:10:40;;;;;;;8.20;4.10;;;;;;;5.55;68.68;101181.17;24483;1333;3026713;-67
2022/10/17 05:13:09;;;;;;;8.10;4.30;;;;;;;5.59;68.67;101182.70;24449;1335;3049065;-65
2022/10/17 05:15:40;;;;;;;8.50;4.40;;;;;;;5.60;68.52;101186.67;24514;1333;3027027;-70
2022/10/17 05:18:10;;;;;;;10.80;4.20;;;;;;;5.63;68.37;101189.57;24470;1334;3027102;-70
2022/10/17 05:20:39;;;;;;;8.90;4.50;;;;;;;5.78;67.93;101185.75;24514;1333;3026885;-67
2022/10/17 05:23:08;;;;;;;7.60;4.10;;;;;;;5.84;67.48;101185.14;24446;1337;3068420;-68
2022/10/17 05:25:41;;;;;;;7.00;4.40;;;;;;;5.89;67.25;101185.41;24409;1337;3027592;-69
2022/10/17 05:28:10;;;;;;;10.90;4.30;;;;;;;5.96;67.03;101186.19;24477;1335;3027706;-66
2022/10/17 05:30:39;;;;;;;8.90;4.60;;;;;;;6.05;66.61;101180.18;24432;1339;3069876;-66
2022/10/17 05:33:11;;;;;;;8.80;4.40;;;;;;;6.11;66.45;101175.23;24470;1337;3029426;-70
2022/10/17 05:35:42;;;;;;;11.20;5.00;;;;;;;6.13;66.55;101176.75;24489;1339;3025861;-71
2022/10/17 05:38:12;;;;;;;8.30;4.50;;;;;;;6.21;66.53;101184.30;24505;1328;3025805;-69
2022/10/17 05:40:41;;;;;;;10.00;4.60;;;;;;;6.31;66.18;101186.05;24495;1338;3025805;-71
2022/10/17 05:43:10;;;;;;;9.60;4.30;;;;;;;6.40;65.89;101193.23;24476;1336;3057174;-64
2022/10/17 05:45:40;;;;;;;8.70;5.10;;;;;;;6.47;65.74;101190.34;24508;1326;3026989;-70
2022/10/17 05:48:10;;;;;;;8.70;4.70;;;;;;;6.52;65.75;101195.29;24537;1341;3050133;-70
2022/10/17 05:50:40;;;;;;;10.20;5.60;;;;;;;6.61;65.50;101189.58;24505;1335;3027766;-64
2022/10/17 05:53:14;;;;;;;;;;;;;;;6.73;65.26;101185.72;24554;1340;3051111;-67
2022/10/17 05:55:55;;;;;;;7.00;3.70;;;;;;;6.77;65.06;101183.73;24420;1337;3052665;-63
2022/10/17 05:58:24;;;;;;;10.00;4.50;;;;;;;6.84;65.02;101188.50;24424;1337;3050738;-69
2022/10/17 06:00:58;;;;;;;8.90;4.50;;;;;;;6.91;64.97;101188.89;24477;1337;3026670;-70
2022/10/17 06:03:27;;;;;;;7.50;4.40;;;;;;;6.95;64.58;101180.98;24560;1335;3029845;-66
2022/10/17 06:06:05;;;;;;;10.40;4.30;;;;;;;6.96;64.65;101181.15;24560;1335;3052767;-66
2022/10/17 06:08:36;;;;;;;12.50;4.20;;;;;;;7.06;64.53;101177.30;24507;1340;3053046;-71
2022/10/17 06:11:05;;;;;;;7.80;4.60;;;;;;;7.12;64.46;101176.48;24525;1339;3026264;-69
2022/10/17 06:13:38;;;;;;;9.60;4.90;;;;;;;7.18;64.24;101182.30;24447;1337;3026695;-69
2022/10/17 06:16:12;;;;;;;7.80;4.30;;;;;;;7.27;64.15;101182.48;24471;1340;3049770;-65
2022/10/17 06:18:45;;;;;;;9.00;5.50;;;;;;;7.31;64.15;101186.58;23788;1341;4197372;-65
2022/10/17 06:21:19;;;;;;;10.50;4.80;;;;;;;7.41;63.71;101188.30;24513;1334;3029616;-67
2022/10/17 06:23:50;;;;;;;9.90;5.90;;;;;;;7.49;63.68;101191.11;24490;1332;3052212;-69
2022/10/17 06:26:28;;;;;;;13.40;6.10;;;;;;;7.65;63.59;101199.15;24458;1337;3051408;-67
2022/10/17 06:28:58;;;;;;;13.90;6.00;;;;;;;7.77;62.87;101210.77;24533;1343;3025810;-66
2022/10/17 06:31:29;;;;;;;13.80;5.90;;;;;;;7.88;62.45;101220.13;24451;1332;3025085;-63
2022/10/17 06:33:58;;;;;;;12.80;5.90;;;;;;;7.99;62.06;101219.70;24514;1333;3028212;-66
2022/10/17 06:36:27;;;;;;;14.60;5.40;;;;;;;8.09;62.09;101220.02;24446;1336;3051262;-68
2022/10/17 06:38:57;;;;;;;13.60;6.50;;;;;;;8.20;61.55;101221.67;24490;1337;3026168;-72
2022/10/17 06:41:36;;;;;;;13.00;5.50;;;;;;;8.35;61.30;101220.65;24489;1337;3068981;-67
2022/10/17 06:44:09;;;;;;;17.00;6.10;;;;;;;8.43;60.75;101222.02;24543;1340;3026715;-70
2022/10/17 06:46:39;;;;;;;14.10;6.90;;;;;;;8.55;60.46;101221.94;24503;1337;3026974;-67
2022/10/17 06:49:13;;;;;;;16.20;6.30;;;;;;;8.67;60.56;101226.36;24484;1341;3051956;-68
2022/10/17 06:51:50;;;;;;;16.50;6.20;;;;;;;8.84;59.94;101224.05;24540;1336;3053023;-70
2022/10/17 06:54:22;;;;;;;17.60;6.20;;;;;;;8.92;59.30;101218.04;24626;1330;3026978;-67
2022/10/17 06:57:11;;;;;;;17.80;6.30;;;;;;;9.01;58.91;101216.77;24407;1340;3052634;-65
2022/10/17 07:00:05;;;;;;;14.00;6.40;;;;;;;9.15;59.10;101222.87;24408;1327;3050536;-64
2022/10/17 07:02:42;;;;;;;13.40;6.00;;;;;;;9.32;58.83;101223.13;24443;1340;3070786;-71
2022/10/17 07:05:11;;;;;;;17.50;7.10;;;;;;;9.38;57.78;101230.11;24582;1327;3027171;-69
2022/10/17 07:07:43;;;;;;;18.00;7.30;;;;;;;9.50;57.96;101235.22;24574;1337;3026072;-71
2022/10/17 07:10:12;;;;;;;13.60;5.90;;;;;;;9.59;56.95;101235.66;24560;1334;3025973;-69
2022/10/17 07:12:48;;;;;;;14.70;6.30;;;;;;;9.75;57.12;101235.05;24620;1327;3048573;-69
2022/10/17 07:15:17;;;;;;;14.60;5.80;;;;;;;9.89;56.75;101234.96;24556;1340;3027250;-67
2022/10/17 07:17:49;;;;;;;17.30;7.00;;;;;;;10.01;55.94;101239.52;24595;1327;3069972;-66
2022/10/17 07:20:18;;;;;;;20.30;6.70;;;;;;;10.06;55.65;101239.02;24546;1337;3027813;-66
2022/10/17 07:22:50;;;;;;;17.70;6.90;;;;;;;10.12;55.37;101239.55;24582;1334;3025826;-70
2022/10/17 07:25:19;;;;;;;17.50;6.40;;;;;;;10.23;54.97;101243.21;24582;1338;3026776;-66
2022/10/17 07:27:54;;;;;;;19.60;6.70;;;;;;;10.31;54.45;101239.85;24656;1341;3050993;-71
2022/10/17 07:30:24;;;;;;;22.40;6.10;;;;;;;10.36;54.09;101238.47;24590;1327;3026122;-65
2022/10/17 07:33:00;;;;;;;21.80;6.30;;;;;;;10.35;53.81;101232.40;24534;1342;3052840;-68
2022/10/17 07:35:54;;;;;;;18.30;6.30;;;;;;;10.48;53.49;101221.13;24587;1341;3053768;-66
2022/10/17 07:38:23;;;;;;;16.80;5.90;;;;;;;10.58;53.31;101222.04;24509;1337;3028096;-67
2022/10/17 07:41:49;;;;;;;22.20;6.70;;;;;;;10.83;52.86;101224.33;30809;1342;3013509;-67
2022/10/17 07:44:19;;;;;;;20.90;6.10;;;;;;;10.91;52.10;101224.78;24439;1330;3026406;-68
2022/10/17 07:46:51;;;;;;;23.10;6.00;;;;;;;11.00;51.76;101216.23;24512;1335;3027197;-68
2022/10/17 07:49:25;;;;;;;15.50;6.20;;;;;;;11.15;52.04;101214.14;24529;1339;3056504;-70
2022/10/17 07:51:55;;;;;;;13.80;6.30;;;;;;;11.22;52.49;101215.31;24508;1329;3026143;-69
2022/10/17 07:54:21;;;;;;;16.30;6.00;;;;;;;11.19;52.72;101214.89;23786;1337;4644612;-72
2022/10/17 07:56:50;;;;;;;12.30;5.30;;;;;;;11.25;53.42;101211.34;24509;1337;3027150;-69
2022/10/17 07:59:20;;;;;;;11.20;5.20;;;;;;;11.41;53.36;101209.01;24505;1336;3026475;-68
2022/10/17 08:01:49;;;;;;;12.80;5.50;;;;;;;11.37;53.32;101209.16;24523;1335;3028466;-72
2022/10/17 08:04:18;;;;;;;13.10;6.00;;;;;;;11.40;53.34;101209.40;24465;1337;3049205;-68
2022/10/17 08:06:47;;;;;;;12.80;5.20;;;;;;;11.45;52.64;101212.89;24522;1340;3025740;-68
2022/10/17 08:09:16;;;;;;;8.40;4.20;;;;;;;11.55;52.91;101210.07;24537;1336;3051414;-67
2022/10/17 08:11:47;;;;;;;8.80;4.40;;;;;;;11.65;52.56;101206.20;24522;1327;3028068;-70
2022/10/17 08:14:16;;;;;;;8.60;4.20;;;;;;;11.71;52.41;101207.37;24514;1326;3026231;-69
2022/10/17 08:16:45;;;;;;;7.60;4.20;;;;;;;11.83;52.48;101207.13;24527;1336;3025002;-69
2022/10/17 08:19:15;;;;;;;10.40;4.50;;;;;;;11.87;51.94;101208.91;24589;1336;3048945;-70
2022/10/17 08:21:45;;;;;;;9.60;4.20;;;;;;;11.96;51.99;101208.55;24557;1330;3028981;-68
2022/10/17 08:24:14;;;;;;;11.50;5.40;;;;;;;12.09;51.95;101206.85;24524;1329;3025772;-67
2022/10/17 08:26:43;;;;;;;11.10;4.60;;;;;;;12.13;51.82;101207.23;24528;1336;3047987;-67
2022/10/17 08:29:13;;;;;;;9.50;5.10;;;;;;;12.20;51.66;101203.60;24491;1327;3027406;-67
2022/10/17 08:31:42;;;;;;;7.80;5.00;;;;;;;12.18;51.20;101200.16;24420;1333;3052423;-69
2022/10/17 08:34:12;;;;;;;11.80;5.00;;;;;;;12.26;51.30;101203.02;24528;1343;3024797;-68
2022/10/17 08:36:40;;;;;;;9.30;4.50;;;;;;;12.41;51.15;101194.66;24473;1334;3028827;-66
2022/10/17 08:39:10;;;;;;;13.10;4.40;;;;;;;12.45;50.36;101193.48;24484;1340;3052493;-69
2022/10/17 08:42:25;;;;;;;10.80;5.10;;;;;;;12.49;50.23;101193.11;24555;1330;3028355;-70
2022/10/17 08:45:09;;;;;;;11.10;5.30;;;;;;;12.45;49.98;101193.80;24432;1336;3069529;-67
2022/10/17 08:47:40;;;;;;;6.20;3.60;;;;;;;12.63;50.50;101196.21;24488;1343;3051101;-67
2022/10/17 08:50:30;;;;;;;7.70;3.30;;;;;;;12.78;49.58;101197.21;24499;1327;3027230;-72
2022/10/17 08:53:07;;;;;;;6.00;3.00;;;;;;;12.87;48.67;101193.10;24475;1330;3053256;-69
2022/10/17 08:55:39;;;;;;;5.60;3.20;;;;;;;12.93;47.89;101194.25;24534;1337;3053274;-68
2022/10/17 08:58:19;;;;;;;8.60;3.50;;;;;;;13.04;47.43;101191.87;24485;1327;3028417;-69
2022/10/17 09:01:07;;;;;;;8.30;2.90;;;;;;;13.15;46.99;101187.52;24499;1332;3052435;-70
2022/10/17 09:03:44;;;;;;;9.40;3.00;;;;;;;13.21;46.66;101185.47;24514;1327;3049754;-68
2022/10/17 09:06:16;;;;;;;6.70;3.20;;;;;;;13.30;46.62;101181.94;24492;1328;3067932;-69
2022/10/17 09:09:04;;;;;;;11.20;2.90;;;;;;;13.38;46.72;101179.80;24497;1343;3029771;-68
2022/10/17 09:12:02;;;;;;;3.50;2.00;;;;;;;13.54;46.06;101178.23;24586;1346;3057120;-69
2022/10/17 09:14:35;;;;;;;4.30;1.90;;;;;;;13.63;44.05;101173.77;24574;1337;3053648;-70
2022/10/17 09:17:18;;;;;;;5.80;1.70;;;;;;;13.67;44.24;101173.92;24507;1334;3052897;-69
2022/10/17 09:20:13;;;;;;;4.70;1.80;;;;;;;13.86;45.16;101182.91;24433;1330;3051333;-67
2022/10/17 09:22:55;;;;;;;6.00;2.30;;;;;;;14.01;43.70;101178.70;24508;1340;3052574;-70
2022/10/17 09:25:25;;;;;;;4.80;2.00;;;;;;;14.01;44.18;101177.45;24522;1336;3048832;-69
2022/10/17 09:28:24;;;;;;;7.00;1.70;;;;;;;14.17;43.64;101174.41;24540;1329;3028389;-69
2022/10/17 09:30:56;;;;;;;3.80;1.60;;;;;;;14.32;43.67;101171.71;24471;1337;3054356;-69
2022/10/17 09:33:30;;;;;;;5.40;2.00;;;;;;;14.51;42.73;101173.29;24465;1336;3026212;-69
2022/10/17 09:35:59;;;;;;;7.00;1.90;;;;;;;14.65;42.42;101175.76;24444;1327;3069690;-68
2022/10/17 09:38:38;;;;;;;8.80;2.20;;;;;;;14.66;41.95;101169.20;24526;1337;3028847;-70
2022/10/17 09:41:33;;;;;;;7.20;2.60;;;;;;;14.70;42.87;101172.16;24464;1337;3051028;-68
2022/10/17 09:44:32;;;;;;;18.60;4.00;;;;;;;14.81;43.43;101175.53;24531;1336;3069113;-70
2022/10/17 09:47:01;;;;;;;41.00;6.70;;;;;;;14.71;43.29;101171.42;24520;1330;3053356;-70
2022/10/17 09:49:37;;;;;;;23.30;5.40;;;;;;;14.67;43.32;101165.09;24505;1336;3027955;-69
2022/10/17 09:52:33;;;;;;;22.90;4.80;;;;;;;14.84;42.70;101162.46;24540;1326;3068765;-69
2022/10/17 09:55:28;;;;;;;19.10;4.10;;;;;;;14.93;42.74;101162.70;24497;1334;3051648;-68
2022/10/17 09:57:59;;;;;;;9.20;3.30;;;;;;;15.08;42.75;101161.05;24495;1334;3056795;-68
2022/10/17 10:00:29;;;;;;;8.90;3.00;;;;;;;15.16;42.51;101156.25;24541;1327;3026019;-69
2022/10/17 10:03:13;;;;;;;7.60;2.70;;;;;;;15.26;42.59;101153.77;24555;1333;3025640;-68
2022/10/17 10:06:04;;;;;;;8.50;2.90;;;;;;;15.33;42.35;101146.66;24515;1332;3055748;-71
2022/10/17 10:08:50;;;;;;;14.80;3.70;;;;;;;15.23;42.43;101146.31;24550;1334;3052769;-71
2022/10/17 10:11:23;;;;;;;14.50;3.90;;;;;;;15.30;42.16;101140.83;24520;1326;3052210;-67
2022/10/17 10:13:55;;;;;;;9.60;3.60;;;;;;;15.37;42.31;101139.92;24454;1332;3050159;-68
2022/10/17 10:16:31;;;;;;;8.60;3.40;;;;;;;15.42;41.83;101138.24;24466;1338;3028565;-68
2022/10/17 10:19:01;;;;;;;11.70;4.20;;;;;;;15.55;42.05;101138.61;24548;1335;3052353;-68
2022/10/17 10:21:30;;;;;;;11.30;3.60;;;;;;;15.55;41.60;101140.34;24513;1336;3027885;-70
2022/10/17 10:24:05;;;;;;;15.00;3.30;;;;;;;15.60;41.51;101145.06;24509;1326;3052366;-66
2022/10/17 10:26:44;;;;;;;10.40;2.80;;;;;;;15.74;41.40;101139.34;24545;1343;3053400;-69
2022/10/17 10:29:37;;;;;;;8.00;2.80;;;;;;;15.93;40.80;101142.34;24520;1337;3049663;-67
2022/10/17 10:32:11;;;;;;;11.10;3.00;;;;;;;16.10;40.36;101137.33;24403;1334;3052790;-70
2022/10/17 10:34:52;;;;;;;11.60;3.40;;;;;;;15.96;40.01;101138.11;24575;1337;3048524;-68
2022/10/17 10:37:24;;;;;;;17.70;4.00;;;;;;;15.93;40.23;101143.25;24472;1327;3068356;-69
2022/10/17 10:40:26;;;;;;;8.00;2.40;;;;;;;16.02;40.40;101146.64;24533;1340;3027297;-68
2022/10/17 10:42:56;;;;;;;12.40;2.70;;;;;;;16.19;39.95;101146.39;24502;1329;3056786;-67
2022/10/17 10:45:39;;;;;;;8.90;2.50;;;;;;;16.26;40.19;101145.80;24552;1337;3026885;-71
2022/10/17 10:48:11;;;;;;;10.30;3.30;;;;;;;16.12;40.05;101146.76;24515;1320;3053822;-71
2022/10/17 10:50:45;;;;;;;11.30;2.70;;;;;;;16.03;39.95;101149.02;24594;1337;3026416;-68
2022/10/17 10:53:28;;;;;;;10.50;3.00;;;;;;;16.20;39.72;101147.36;24510;1342;3026165;-66
2022/10/17 10:55:59;;;;;;;14.80;3.30;;;;;;;16.29;39.52;101143.33;24897;1337;3049261;-69
2022/10/17 10:58:38;;;;;;;7.30;3.10;;;;;;;16.19;39.65;101145.30;24753;1339;3028785;-69
2022/10/17 11:01:14;;;;;;;8.90;2.80;;;;;;;16.18;39.88;101145.01;24495;1320;3051089;-68
2022/10/17 11:04:16;;;;;;;10.50;3.30;;;;;;;16.29;39.63;101148.25;24446;1323;3056020;-70
2022/10/17 11:06:45;;;;;;;13.40;3.70;;;;;;;16.35;38.74;101146.15;24598;1329;3053231;-67
2022/10/17 11:09:25;;;;;;;10.40;2.90;;;;;;;16.46;38.90;101143.94;24509;1336;3029061;-65
2022/10/17 11:11:59;;;;;;;10.10;2.80;;;;;;;16.44;38.62;101143.88;24471;1327;3051429;-66
2022/10/17 11:14:28;;;;;;;6.00;2.70;;;;;;;16.49;38.45;101136.52;24476;1329;3053012;-68
2022/10/17 11:17:17;;;;;;;11.90;2.70;;;;;;;16.60;38.74;101129.13;24447;1334;3025999;-68
2022/10/17 11:19:55;;;;;;;10.60;2.50;;;;;;;16.76;38.59;101125.34;24498;1340;3070519;-69
2022/10/17 11:22:33;;;;;;;9.50;3.00;;;;;;;16.94;38.77;101125.52;24494;1343;3050316;-67
2022/10/17 11:25:03;;;;;;;14.10;3.60;;;;;;;16.95;38.54;101123.31;24489;1336;3058251;-67
2022/10/17 11:27:33;;;;;;;10.20;2.70;;;;;;;16.88;38.37;101121.08;24489;1326;3028397;-69
2022/10/17 11:30:03;;;;;;;10.50;2.80;;;;;;;16.91;38.13;101119.86;24436;1328;3026672;-68
2022/10/17 11:32:44;;;;;;;8.40;2.70;;;;;;;16.92;37.77;101117.66;24483;1323;3057867;-66
2022/10/17 11:35:29;;;;;;;9.20;2.60;;;;;;;17.02;37.97;101112.86;24463;1336;3053159;-69
2022/10/17 11:38:13;;;;;;;10.50;2.60;;;;;;;17.08;38.22;101110.34;24461;1343;3054768;-67
2022/10/17 11:40:44;;;;;;;9.00;2.60;;;;;;;17.09;37.83;101108.33;24491;1336;3050129;-69
2022/10/17 11:43:19;;;;;;;11.70;3.10;;;;;;;17.06;38.34;101102.66;24434;1337;3027446;-67
2022/10/17 11:45:52;;;;;;;10.00;3.00;;;;;;;17.21;38.01;101103.19;24473;1330;3049733;-68
2022/10/17 11:48:24;;;;;;;8.00;3.20;;;;;;;17.22;38.23;101098.31;24460;1336;3025897;-68